sensor_id;sensor_type;location;lat;lon;timestamp;temperature;humidity
54788;DHT22;59598;48.112;16.280;2022-09-16T00:00:41;15.40;99.90
54788;DHT22;59598;48.112;16.280;2022-09-16T00:03:19;15.40;99.90
54788;DHT22;59598;48.112;16.280;2022-09-16T00:05:51;15.40;99.90
54788;DHT22;59598;48.112;16.280;2022-09-16T00:08:26;15.40;99.90
54788;DHT22;59598;48.112;16.280;2022-09-16T00:11:02;15.50;99.90
54788;DHT22;59598;48.112;16.280;2022-09-16T00:13:36;15.50;99.90
54788;DHT22;59598;48.112;16.280;2022-09-16T00:16:15;15.50;99.90
54788;DHT22;59598;48.112;16.280;2022-09-16T00:19:00;15.40;99.90
54788;DHT22;59598;48.112;16.280;2022-09-16T00:21:34;15.30;99.90
54788;DHT22;59598;48.112;16.280;2022-09-16T00:24:11;15.30;99.90
54788;DHT22;59598;48.112;16.280;2022-09-16T00:26:44;15.30;99.90
54788;DHT22;59598;48.112;16.280;2022-09-16T00:29:23;15.40;99.90
54788;DHT22;59598;48.112;16.280;2022-09-16T00:31:54;15.30;99.90
54788;DHT22;59598;48.112;16.280;2022-09-16T00:34:29;15.40;99.90
54788;DHT22;59598;48.112;16.280;2022-09-16T00:37:00;15.40;99.90
54788;DHT22;59598;48.112;16.280;2022-09-16T00:39:38;15.40;99.90
54788;DHT22;59598;48.112;16.280;2022-09-16T00:42:17;15.30;99.90
54788;DHT22;59598;48.112;16.280;2022-09-16T00:45:01;15.30;99.90
54788;DHT22;59598;48.112;16.280;2022-09-16T00:47:56;15.20;99.90
54788;DHT22;59598;48.112;16.280;2022-09-16T00:53:02;15.30;99.90
54788;DHT22;59598;48.112;16.280;2022-09-16T00:55:36;15.40;99.90
54788;DHT22;59598;48.112;16.280;2022-09-16T01:01:21;15.20;99.90
54788;DHT22;59598;48.112;16.280;2022-09-16T01:03:58;15.30;99.90
54788;DHT22;59598;48.112;16.280;2022-09-16T01:06:35;15.20;99.90
54788;DHT22;59598;48.112;16.280;2022-09-16T01:09:12;15.20;99.90
54788;DHT22;59598;48.112;16.280;2022-09-16T01:11:44;15.20;99.90
54788;DHT22;59598;48.112;16.280;2022-09-16T01:14:21;15.10;99.90
54788;DHT22;59598;48.112;16.280;2022-09-16T01:17:36;15.10;99.90
54788;DHT22;59598;48.112;16.280;2022-09-16T01:37:02;14.80;99.90
54788;DHT22;59598;48.112;16.280;2022-09-16T01:40:02;14.80;99.90
54788;DHT22;59598;48.112;16.280;2022-09-16T01:43:12;14.80;99.90
54788;DHT22;59598;48.112;16.280;2022-09-16T01:45:57;14.80;99.90
54788;DHT22;59598;48.112;16.280;2022-09-16T01:49:02;14.80;99.90
54788;DHT22;59598;48.112;16.280;2022-09-16T01:55:29;15.00;99.90
54788;DHT22;59598;48.112;16.280;2022-09-16T01:58:26;14.90;99.90
54788;DHT22;59598;48.112;16.280;2022-09-16T02:01:10;14.90;99.90
54788;DHT22;59598;48.112;16.280;2022-09-16T02:03:59;14.90;99.90
54788;DHT22;59598;48.112;16.280;2022-09-16T02:06:36;14.90;99.90
54788;DHT22;59598;48.112;16.280;2022-09-16T02:09:21;14.90;99.90
54788;DHT22;59598;48.112;16.280;2022-09-16T02:12:00;14.80;99.90
54788;DHT22;59598;48.112;16.280;2022-09-16T02:14:42;14.80;99.90
54788;DHT22;59598;48.112;16.280;2022-09-16T02:17:21;14.60;99.90
54788;DHT22;59598;48.112;16.280;2022-09-16T02:20:03;14.50;99.90
54788;DHT22;59598;48.112;16.280;2022-09-16T02:22:52;14.60;99.90
54788;DHT22;59598;48.112;16.280;2022-09-16T02:25:29;14.60;99.90
54788;DHT22;59598;48.112;16.280;2022-09-16T02:28:09;14.60;99.90
54788;DHT22;59598;48.112;16.280;2022-09-16T02:30:52;14.60;99.90
54788;DHT22;59598;48.112;16.280;2022-09-16T02:33:41;14.90;99.90
54788;DHT22;59598;48.112;16.280;2022-09-16T02:36:20;14.90;99.90
54788;DHT22;59598;48.112;16.280;2022-09-16T02:39:10;14.80;99.90
54788;DHT22;59598;48.112;16.280;2022-09-16T02:41:44;14.70;99.90
54788;DHT22;59598;48.112;16.280;2022-09-16T02:44:22;14.80;99.90
54788;DHT22;59598;48.112;16.280;2022-09-16T02:50:26;14.80;99.90
54788;DHT22;59598;48.112;16.280;2022-09-16T02:52:56;14.70;99.90
54788;DHT22;59598;48.112;16.280;2022-09-16T02:55:56;14.80;99.90
54788;DHT22;59598;48.112;16.280;2022-09-16T02:58:31;14.90;99.90
54788;DHT22;59598;48.112;16.280;2022-09-16T03:01:10;14.90;99.90
54788;DHT22;59598;48.112;16.280;2022-09-16T03:03:42;14.90;99.90
54788;DHT22;59598;48.112;16.280;2022-09-16T03:06:18;14.90;99.90
54788;DHT22;59598;48.112;16.280;2022-09-16T03:08:58;14.90;99.90
54788;DHT22;59598;48.112;16.280;2022-09-16T03:21:18;15.00;99.90
54788;DHT22;59598;48.112;16.280;2022-09-16T03:27:08;15.00;99.90
54788;DHT22;59598;48.112;16.280;2022-09-16T03:29:49;14.90;99.90
54788;DHT22;59598;48.112;16.280;2022-09-16T03:32:59;14.90;99.90
54788;DHT22;59598;48.112;16.280;2022-09-16T03:35:48;14.90;99.90
54788;DHT22;59598;48.112;16.280;2022-09-16T03:38:23;14.80;99.90
54788;DHT22;59598;48.112;16.280;2022-09-16T03:41:02;14.80;99.90
54788;DHT22;59598;48.112;16.280;2022-09-16T03:43:38;14.70;99.90
54788;DHT22;59598;48.112;16.280;2022-09-16T03:46:13;14.70;99.90
54788;DHT22;59598;48.112;16.280;2022-09-16T03:48:45;14.70;99.90
54788;DHT22;59598;48.112;16.280;2022-09-16T03:51:16;14.60;99.90
54788;DHT22;59598;48.112;16.280;2022-09-16T03:53:49;14.60;99.90
54788;DHT22;59598;48.112;16.280;2022-09-16T03:56:26;14.60;99.90
54788;DHT22;59598;48.112;16.280;2022-09-16T03:58:57;14.60;99.90
54788;DHT22;59598;48.112;16.280;2022-09-16T04:01:32;14.60;99.90
54788;DHT22;59598;48.112;16.280;2022-09-16T04:04:05;14.60;99.90
54788;DHT22;59598;48.112;16.280;2022-09-16T04:06:40;14.60;99.90
54788;DHT22;59598;48.112;16.280;2022-09-16T04:09:17;14.60;99.90
54788;DHT22;59598;48.112;16.280;2022-09-16T04:11:51;14.60;99.90
54788;DHT22;59598;48.112;16.280;2022-09-16T04:14:24;14.60;99.90
54788;DHT22;59598;48.112;16.280;2022-09-16T04:16:58;14.60;99.90
54788;DHT22;59598;48.112;16.280;2022-09-16T04:19:35;14.60;99.90
54788;DHT22;59598;48.112;16.280;2022-09-16T04:22:12;14.60;99.90
54788;DHT22;59598;48.112;16.280;2022-09-16T04:24:45;14.50;99.90
54788;DHT22;59598;48.112;16.280;2022-09-16T04:27:20;14.60;99.90
54788;DHT22;59598;48.112;16.280;2022-09-16T04:29:55;14.60;99.90
54788;DHT22;59598;48.112;16.280;2022-09-16T04:32:29;14.50;99.90
54788;DHT22;59598;48.112;16.280;2022-09-16T04:35:02;14.50;99.90
54788;DHT22;59598;48.112;16.280;2022-09-16T04:37:38;14.50;99.90
54788;DHT22;59598;48.112;16.280;2022-09-16T04:40:11;14.40;99.90
54788;DHT22;59598;48.112;16.280;2022-09-16T04:42:52;14.40;99.90
54788;DHT22;59598;48.112;16.280;2022-09-16T04:45:23;14.50;99.90
54788;DHT22;59598;48.112;16.280;2022-09-16T04:47:58;14.50;99.90
54788;DHT22;59598;48.112;16.280;2022-09-16T04:50:33;14.50;99.90
54788;DHT22;59598;48.112;16.280;2022-09-16T04:53:08;14.50;99.90
54788;DHT22;59598;48.112;16.280;2022-09-16T04:55:42;14.50;99.90
54788;DHT22;59598;48.112;16.280;2022-09-16T04:58:14;14.50;99.90
54788;DHT22;59598;48.112;16.280;2022-09-16T05:00:48;14.40;99.90
54788;DHT22;59598;48.112;16.280;2022-09-16T05:03:27;14.40;99.90
54788;DHT22;59598;48.112;16.280;2022-09-16T05:06:08;14.40;99.90
54788;DHT22;59598;48.112;16.280;2022-09-16T05:08:45;14.50;99.90
54788;DHT22;59598;48.112;16.280;2022-09-16T05:11:29;14.50;99.90
54788;DHT22;59598;48.112;16.280;2022-09-16T05:14:09;14.50;99.90
54788;DHT22;59598;48.112;16.280;2022-09-16T05:16:48;14.60;99.90
54788;DHT22;59598;48.112;16.280;2022-09-16T05:19:20;14.60;99.90
54788;DHT22;59598;48.112;16.280;2022-09-16T05:21:52;14.60;99.90
54788;DHT22;59598;48.112;16.280;2022-09-16T05:24:23;14.60;99.90
54788;DHT22;59598;48.112;16.280;2022-09-16T05:26:56;14.60;99.90
54788;DHT22;59598;48.112;16.280;2022-09-16T05:29:28;14.60;99.90
54788;DHT22;59598;48.112;16.280;2022-09-16T05:32:01;14.60;99.90
54788;DHT22;59598;48.112;16.280;2022-09-16T05:34:33;14.60;99.90
54788;DHT22;59598;48.112;16.280;2022-09-16T05:37:07;14.70;99.90
54788;DHT22;59598;48.112;16.280;2022-09-16T05:39:44;14.70;99.90
54788;DHT22;59598;48.112;16.280;2022-09-16T05:42:15;14.60;99.90
54788;DHT22;59598;48.112;16.280;2022-09-16T05:44:49;14.60;99.90
54788;DHT22;59598;48.112;16.280;2022-09-16T05:47:24;14.70;99.90
54788;DHT22;59598;48.112;16.280;2022-09-16T05:50:02;14.70;99.90
54788;DHT22;59598;48.112;16.280;2022-09-16T05:52:34;14.70;99.90
54788;DHT22;59598;48.112;16.280;2022-09-16T05:55:13;14.70;99.90
54788;DHT22;59598;48.112;16.280;2022-09-16T05:57:50;14.70;99.90
54788;DHT22;59598;48.112;16.280;2022-09-16T06:00:24;14.80;99.90
54788;DHT22;59598;48.112;16.280;2022-09-16T06:02:58;14.80;99.90
54788;DHT22;59598;48.112;16.280;2022-09-16T06:05:38;14.90;99.90
54788;DHT22;59598;48.112;16.280;2022-09-16T06:08:10;14.90;99.90
54788;DHT22;59598;48.112;16.280;2022-09-16T06:10:47;15.00;99.90
54788;DHT22;59598;48.112;16.280;2022-09-16T06:13:22;15.10;99.90
54788;DHT22;59598;48.112;16.280;2022-09-16T06:16:04;15.20;99.90
54788;DHT22;59598;48.112;16.280;2022-09-16T06:18:40;15.20;99.90
54788;DHT22;59598;48.112;16.280;2022-09-16T06:21:17;15.30;99.90
54788;DHT22;59598;48.112;16.280;2022-09-16T06:23:49;15.30;99.90
54788;DHT22;59598;48.112;16.280;2022-09-16T06:26:27;15.20;99.90
54788;DHT22;59598;48.112;16.280;2022-09-16T06:29:01;15.20;99.90
54788;DHT22;59598;48.112;16.280;2022-09-16T06:31:37;15.20;99.90
54788;DHT22;59598;48.112;16.280;2022-09-16T06:34:17;15.20;99.90
54788;DHT22;59598;48.112;16.280;2022-09-16T06:36:53;15.20;99.90
54788;DHT22;59598;48.112;16.280;2022-09-16T06:39:33;15.10;99.90
54788;DHT22;59598;48.112;16.280;2022-09-16T06:42:06;15.20;99.90
54788;DHT22;59598;48.112;16.280;2022-09-16T06:44:40;15.30;99.90
54788;DHT22;59598;48.112;16.280;2022-09-16T06:47:12;15.50;99.90
54788;DHT22;59598;48.112;16.280;2022-09-16T06:49:43;15.70;99.90
54788;DHT22;59598;48.112;16.280;2022-09-16T06:52:19;15.80;99.90
54788;DHT22;59598;48.112;16.280;2022-09-16T06:54:53;16.00;99.90
54788;DHT22;59598;48.112;16.280;2022-09-16T06:57:27;16.00;99.90
54788;DHT22;59598;48.112;16.280;2022-09-16T07:00:05;16.00;99.90
54788;DHT22;59598;48.112;16.280;2022-09-16T07:02:41;15.80;99.90
54788;DHT22;59598;48.112;16.280;2022-09-16T07:05:20;15.70;99.90
54788;DHT22;59598;48.112;16.280;2022-09-16T07:07:52;15.60;99.90
54788;DHT22;59598;48.112;16.280;2022-09-16T07:10:26;15.60;99.90
54788;DHT22;59598;48.112;16.280;2022-09-16T07:13:00;15.60;99.90
54788;DHT22;59598;48.112;16.280;2022-09-16T07:15:34;15.60;99.90
54788;DHT22;59598;48.112;16.280;2022-09-16T07:18:05;15.60;99.90
54788;DHT22;59598;48.112;16.280;2022-09-16T07:20:39;15.60;99.90
54788;DHT22;59598;48.112;16.280;2022-09-16T07:23:16;15.70;99.90
54788;DHT22;59598;48.112;16.280;2022-09-16T07:26:20;15.80;99.90
54788;DHT22;59598;48.112;16.280;2022-09-16T07:28:54;16.00;99.90
54788;DHT22;59598;48.112;16.280;2022-09-16T07:31:28;16.00;99.90
54788;DHT22;59598;48.112;16.280;2022-09-16T07:34:04;16.10;99.90
54788;DHT22;59598;48.112;16.280;2022-09-16T07:36:45;16.20;99.90
54788;DHT22;59598;48.112;16.280;2022-09-16T07:39:21;16.10;99.90
54788;DHT22;59598;48.112;16.280;2022-09-16T07:42:01;16.20;99.90
54788;DHT22;59598;48.112;16.280;2022-09-16T07:44:34;16.20;99.90
54788;DHT22;59598;48.112;16.280;2022-09-16T07:47:06;16.30;99.90
54788;DHT22;59598;48.112;16.280;2022-09-16T07:49:40;16.40;99.90
54788;DHT22;59598;48.112;16.280;2022-09-16T07:52:12;16.30;99.90
54788;DHT22;59598;48.112;16.280;2022-09-16T07:54:48;16.50;99.90
54788;DHT22;59598;48.112;16.280;2022-09-16T07:57:21;16.50;99.90
54788;DHT22;59598;48.112;16.280;2022-09-16T07:59:55;16.60;99.90
54788;DHT22;59598;48.112;16.280;2022-09-16T08:02:30;16.60;99.90
54788;DHT22;59598;48.112;16.280;2022-09-16T08:05:04;16.60;99.90
54788;DHT22;59598;48.112;16.280;2022-09-16T08:07:39;16.60;99.90
54788;DHT22;59598;48.112;16.280;2022-09-16T08:10:11;16.70;99.90
54788;DHT22;59598;48.112;16.280;2022-09-16T08:12:46;16.60;99.90
54788;DHT22;59598;48.112;16.280;2022-09-16T08:15:19;16.70;99.90
54788;DHT22;59598;48.112;16.280;2022-09-16T08:17:53;16.80;99.90
54788;DHT22;59598;48.112;16.280;2022-09-16T08:20:29;16.80;99.90
54788;DHT22;59598;48.112;16.280;2022-09-16T08:23:03;17.00;99.90
54788;DHT22;59598;48.112;16.280;2022-09-16T08:25:38;17.00;99.90
54788;DHT22;59598;48.112;16.280;2022-09-16T08:28:16;17.20;99.90
54788;DHT22;59598;48.112;16.280;2022-09-16T08:30:49;17.30;99.90
54788;DHT22;59598;48.112;16.280;2022-09-16T08:33:24;17.60;99.90
54788;DHT22;59598;48.112;16.280;2022-09-16T08:36:15;17.70;99.90
54788;DHT22;59598;48.112;16.280;2022-09-16T08:38:48;17.80;99.90
54788;DHT22;59598;48.112;16.280;2022-09-16T08:41:34;17.80;99.90
54788;DHT22;59598;48.112;16.280;2022-09-16T08:44:26;17.90;99.90
54788;DHT22;59598;48.112;16.280;2022-09-16T08:47:03;18.00;99.90
54788;DHT22;59598;48.112;16.280;2022-09-16T08:49:47;18.30;99.90
54788;DHT22;59598;48.112;16.280;2022-09-16T08:52:35;18.50;99.90
54788;DHT22;59598;48.112;16.280;2022-09-16T08:58:15;18.40;99.90
54788;DHT22;59598;48.112;16.280;2022-09-16T09:00:58;18.50;99.90
54788;DHT22;59598;48.112;16.280;2022-09-16T09:03:41;18.40;99.90
54788;DHT22;59598;48.112;16.280;2022-09-16T09:12:17;18.90;99.90
54788;DHT22;59598;48.112;16.280;2022-09-16T09:21:42;18.80;99.90
54788;DHT22;59598;48.112;16.280;2022-09-16T09:27:20;18.70;99.90
54788;DHT22;59598;48.112;16.280;2022-09-16T09:30:24;18.60;99.90
54788;DHT22;59598;48.112;16.280;2022-09-16T09:36:50;18.10;99.90
54788;DHT22;59598;48.112;16.280;2022-09-16T09:40:20;17.50;99.90
54788;DHT22;59598;48.112;16.280;2022-09-16T09:43:15;17.70;99.90
54788;DHT22;59598;48.112;16.280;2022-09-16T09:46:01;17.80;99.90
54788;DHT22;59598;48.112;16.280;2022-09-16T09:54:04;18.40;99.90
54788;DHT22;59598;48.112;16.280;2022-09-16T10:00:05;18.40;99.90
54788;DHT22;59598;48.112;16.280;2022-09-16T10:02:44;18.70;99.90
54788;DHT22;59598;48.112;16.280;2022-09-16T10:08:04;18.80;99.90
54788;DHT22;59598;48.112;16.280;2022-09-16T10:10:58;19.20;99.90
54788;DHT22;59598;48.112;16.280;2022-09-16T10:13:31;19.20;99.90
54788;DHT22;59598;48.112;16.280;2022-09-16T10:16:13;19.00;99.90
54788;DHT22;59598;48.112;16.280;2022-09-16T10:19:20;19.00;99.90
54788;DHT22;59598;48.112;16.280;2022-09-16T10:22:20;19.10;99.90
54788;DHT22;59598;48.112;16.280;2022-09-16T10:25:22;19.50;99.90
54788;DHT22;59598;48.112;16.280;2022-09-16T10:28:01;19.90;99.90
54788;DHT22;59598;48.112;16.280;2022-09-16T10:30:54;20.10;99.90
54788;DHT22;59598;48.112;16.280;2022-09-16T10:33:32;19.70;99.90
54788;DHT22;59598;48.112;16.280;2022-09-16T10:36:07;19.30;99.90
54788;DHT22;59598;48.112;16.280;2022-09-16T10:38:46;19.30;99.90
54788;DHT22;59598;48.112;16.280;2022-09-16T10:41:31;19.00;99.90
54788;DHT22;59598;48.112;16.280;2022-09-16T10:44:36;19.20;99.90
54788;DHT22;59598;48.112;16.280;2022-09-16T10:47:36;19.30;99.90
54788;DHT22;59598;48.112;16.280;2022-09-16T10:50:16;19.00;99.90
54788;DHT22;59598;48.112;16.280;2022-09-16T10:52:49;19.00;99.90
54788;DHT22;59598;48.112;16.280;2022-09-16T10:55:30;19.00;99.90
54788;DHT22;59598;48.112;16.280;2022-09-16T10:58:15;19.30;99.90
54788;DHT22;59598;48.112;16.280;2022-09-16T11:10:44;19.70;99.90
54788;DHT22;59598;48.112;16.280;2022-09-16T11:25:34;18.80;99.90
54788;DHT22;59598;48.112;16.280;2022-09-16T11:37:45;18.80;99.90
54788;DHT22;59598;48.112;16.280;2022-09-16T11:46:27;18.70;99.90
54788;DHT22;59598;48.112;16.280;2022-09-16T11:58:40;18.90;99.90
54788;DHT22;59598;48.112;16.280;2022-09-16T12:01:27;19.00;99.90
54788;DHT22;59598;48.112;16.280;2022-09-16T12:10:24;19.00;99.90
54788;DHT22;59598;48.112;16.280;2022-09-16T12:13:12;19.10;99.90
54788;DHT22;59598;48.112;16.280;2022-09-16T12:15:58;19.30;99.90
54788;DHT22;59598;48.112;16.280;2022-09-16T12:18:53;19.50;99.90
54788;DHT22;59598;48.112;16.280;2022-09-16T12:21:47;19.70;99.90
54788;DHT22;59598;48.112;16.280;2022-09-16T12:27:15;19.60;99.90
54788;DHT22;59598;48.112;16.280;2022-09-16T12:30:00;19.50;99.90
54788;DHT22;59598;48.112;16.280;2022-09-16T12:32:56;19.90;99.90
54788;DHT22;59598;48.112;16.280;2022-09-16T12:35:36;20.30;99.90
54788;DHT22;59598;48.112;16.280;2022-09-16T12:38:18;20.70;99.90
54788;DHT22;59598;48.112;16.280;2022-09-16T12:41:31;20.40;99.90
54788;DHT22;59598;48.112;16.280;2022-09-16T13:03:41;19.40;99.90
54788;DHT22;59598;48.112;16.280;2022-09-16T13:06:26;19.50;99.90
54788;DHT22;59598;48.112;16.280;2022-09-16T13:09:35;19.60;99.90
54788;DHT22;59598;48.112;16.280;2022-09-16T13:12:24;19.80;99.90
54788;DHT22;59598;48.112;16.280;2022-09-16T13:15:04;19.50;99.90
54788;DHT22;59598;48.112;16.280;2022-09-16T13:17:41;19.60;99.90
54788;DHT22;59598;48.112;16.280;2022-09-16T13:25:30;19.90;99.90
54788;DHT22;59598;48.112;16.280;2022-09-16T13:36:32;19.50;99.90
54788;DHT22;59598;48.112;16.280;2022-09-16T13:39:12;19.40;99.90
54788;DHT22;59598;48.112;16.280;2022-09-16T13:42:22;19.40;99.90
54788;DHT22;59598;48.112;16.280;2022-09-16T13:44:55;19.00;99.90
54788;DHT22;59598;48.112;16.280;2022-09-16T13:47:31;19.00;99.90
54788;DHT22;59598;48.112;16.280;2022-09-16T13:50:14;19.00;99.90
54788;DHT22;59598;48.112;16.280;2022-09-16T13:52:51;19.10;99.90
54788;DHT22;59598;48.112;16.280;2022-09-16T13:55:26;19.00;99.90
54788;DHT22;59598;48.112;16.280;2022-09-16T13:58:14;19.20;99.90
54788;DHT22;59598;48.112;16.280;2022-09-16T14:07:11;18.70;99.90
54788;DHT22;59598;48.112;16.280;2022-09-16T14:13:15;18.80;99.90
54788;DHT22;59598;48.112;16.280;2022-09-16T14:15:55;18.90;99.90
54788;DHT22;59598;48.112;16.280;2022-09-16T14:18:32;19.20;99.90
54788;DHT22;59598;48.112;16.280;2022-09-16T14:21:18;19.10;99.90
54788;DHT22;59598;48.112;16.280;2022-09-16T14:23:51;18.90;99.90
54788;DHT22;59598;48.112;16.280;2022-09-16T14:26:25;18.70;99.90
54788;DHT22;59598;48.112;16.280;2022-09-16T14:29:09;18.70;99.90
54788;DHT22;59598;48.112;16.280;2022-09-16T14:31:41;19.00;99.90
54788;DHT22;59598;48.112;16.280;2022-09-16T14:34:35;19.10;99.90
54788;DHT22;59598;48.112;16.280;2022-09-16T14:37:15;19.30;99.90
54788;DHT22;59598;48.112;16.280;2022-09-16T14:39:51;19.30;99.90
54788;DHT22;59598;48.112;16.280;2022-09-16T14:42:23;19.20;99.90
54788;DHT22;59598;48.112;16.280;2022-09-16T14:45:03;19.20;99.90
54788;DHT22;59598;48.112;16.280;2022-09-16T14:47:41;19.20;99.90
54788;DHT22;59598;48.112;16.280;2022-09-16T14:50:22;19.20;99.90
54788;DHT22;59598;48.112;16.280;2022-09-16T14:53:00;19.20;99.90
54788;DHT22;59598;48.112;16.280;2022-09-16T14:55:51;19.50;99.90
54788;DHT22;59598;48.112;16.280;2022-09-16T14:58:30;19.50;99.90
54788;DHT22;59598;48.112;16.280;2022-09-16T15:01:10;19.90;99.90
54788;DHT22;59598;48.112;16.280;2022-09-16T15:04:03;20.10;99.90
54788;DHT22;59598;48.112;16.280;2022-09-16T15:06:47;19.90;99.90
54788;DHT22;59598;48.112;16.280;2022-09-16T15:09:52;20.10;99.90
54788;DHT22;59598;48.112;16.280;2022-09-16T15:12:51;20.40;99.90
54788;DHT22;59598;48.112;16.280;2022-09-16T15:15:26;20.40;99.90
54788;DHT22;59598;48.112;16.280;2022-09-16T15:18:11;19.90;99.90
54788;DHT22;59598;48.112;16.280;2022-09-16T15:21:05;19.40;99.90
54788;DHT22;59598;48.112;16.280;2022-09-16T15:23:40;19.20;99.90
54788;DHT22;59598;48.112;16.280;2022-09-16T15:26:28;19.20;99.90
54788;DHT22;59598;48.112;16.280;2022-09-16T15:32:17;19.00;99.90
54788;DHT22;59598;48.112;16.280;2022-09-16T15:35:22;19.00;99.90
54788;DHT22;59598;48.112;16.280;2022-09-16T15:38:09;19.00;99.90
54788;DHT22;59598;48.112;16.280;2022-09-16T15:40:44;19.20;99.90
54788;DHT22;59598;48.112;16.280;2022-09-16T15:43:29;19.10;99.90
54788;DHT22;59598;48.112;16.280;2022-09-16T15:46:19;18.90;99.90
54788;DHT22;59598;48.112;16.280;2022-09-16T15:48:57;18.70;99.90
54788;DHT22;59598;48.112;16.280;2022-09-16T15:51:43;18.60;99.90
54788;DHT22;59598;48.112;16.280;2022-09-16T15:54:30;18.50;99.90
54788;DHT22;59598;48.112;16.280;2022-09-16T15:57:36;18.40;99.90
54788;DHT22;59598;48.112;16.280;2022-09-16T16:00:13;18.30;99.90
54788;DHT22;59598;48.112;16.280;2022-09-16T16:02:55;18.20;99.90
54788;DHT22;59598;48.112;16.280;2022-09-16T16:05:31;18.10;99.90
54788;DHT22;59598;48.112;16.280;2022-09-16T16:08:09;18.00;99.90
54788;DHT22;59598;48.112;16.280;2022-09-16T16:11:09;18.00;99.90
54788;DHT22;59598;48.112;16.280;2022-09-16T16:13:45;17.90;99.90
54788;DHT22;59598;48.112;16.280;2022-09-16T16:16:24;17.80;99.90
54788;DHT22;59598;48.112;16.280;2022-09-16T16:18:58;17.80;99.90
54788;DHT22;59598;48.112;16.280;2022-09-16T16:21:39;17.80;99.90
54788;DHT22;59598;48.112;16.280;2022-09-16T16:24:17;17.80;99.90
54788;DHT22;59598;48.112;16.280;2022-09-16T16:26:49;17.80;99.90
54788;DHT22;59598;48.112;16.280;2022-09-16T16:29:24;17.90;99.90
54788;DHT22;59598;48.112;16.280;2022-09-16T16:32:09;17.90;99.90
54788;DHT22;59598;48.112;16.280;2022-09-16T16:34:45;17.80;99.90
54788;DHT22;59598;48.112;16.280;2022-09-16T16:37:18;17.80;99.90
54788;DHT22;59598;48.112;16.280;2022-09-16T16:39:53;17.90;99.90
54788;DHT22;59598;48.112;16.280;2022-09-16T16:42:34;17.90;99.90
54788;DHT22;59598;48.112;16.280;2022-09-16T16:45:06;17.90;99.90
54788;DHT22;59598;48.112;16.280;2022-09-16T16:47:38;17.90;99.90
54788;DHT22;59598;48.112;16.280;2022-09-16T16:50:10;17.80;99.90
54788;DHT22;59598;48.112;16.280;2022-09-16T16:52:41;17.90;99.90
54788;DHT22;59598;48.112;16.280;2022-09-16T16:55:13;17.80;99.90
54788;DHT22;59598;48.112;16.280;2022-09-16T16:57:47;17.70;99.90
54788;DHT22;59598;48.112;16.280;2022-09-16T17:00:20;17.70;99.90
54788;DHT22;59598;48.112;16.280;2022-09-16T17:02:55;17.60;99.90
54788;DHT22;59598;48.112;16.280;2022-09-16T17:05:34;17.40;99.90
54788;DHT22;59598;48.112;16.280;2022-09-16T17:08:06;17.40;99.90
54788;DHT22;59598;48.112;16.280;2022-09-16T17:10:39;17.30;99.90
54788;DHT22;59598;48.112;16.280;2022-09-16T17:13:16;17.30;99.90
54788;DHT22;59598;48.112;16.280;2022-09-16T17:15:51;17.30;99.90
54788;DHT22;59598;48.112;16.280;2022-09-16T17:18:22;17.10;99.90
54788;DHT22;59598;48.112;16.280;2022-09-16T17:21:07;16.90;99.90
54788;DHT22;59598;48.112;16.280;2022-09-16T17:23:43;16.60;99.90
54788;DHT22;59598;48.112;16.280;2022-09-16T17:26:17;16.20;99.90
54788;DHT22;59598;48.112;16.280;2022-09-16T17:28:50;15.70;99.90
54788;DHT22;59598;48.112;16.280;2022-09-16T17:31:29;15.40;99.90
54788;DHT22;59598;48.112;16.280;2022-09-16T17:34:05;15.00;99.90
54788;DHT22;59598;48.112;16.280;2022-09-16T17:36:42;14.90;99.90
54788;DHT22;59598;48.112;16.280;2022-09-16T17:39:17;14.80;99.90
54788;DHT22;59598;48.112;16.280;2022-09-16T17:41:52;14.70;99.90
54788;DHT22;59598;48.112;16.280;2022-09-16T17:44:28;14.60;99.90
54788;DHT22;59598;48.112;16.280;2022-09-16T17:47:02;14.60;99.90
54788;DHT22;59598;48.112;16.280;2022-09-16T17:49:33;14.50;99.90
54788;DHT22;59598;48.112;16.280;2022-09-16T17:52:05;14.40;99.90
54788;DHT22;59598;48.112;16.280;2022-09-16T17:54:39;14.20;99.90
54788;DHT22;59598;48.112;16.280;2022-09-16T17:57:14;14.00;99.90
54788;DHT22;59598;48.112;16.280;2022-09-16T17:59:48;13.90;99.90
54788;DHT22;59598;48.112;16.280;2022-09-16T18:02:25;13.80;99.90
54788;DHT22;59598;48.112;16.280;2022-09-16T18:04:57;13.60;99.90
54788;DHT22;59598;48.112;16.280;2022-09-16T18:07:33;13.60;99.90
54788;DHT22;59598;48.112;16.280;2022-09-16T18:10:05;13.50;99.90
54788;DHT22;59598;48.112;16.280;2022-09-16T18:12:37;13.50;99.90
54788;DHT22;59598;48.112;16.280;2022-09-16T18:15:09;13.50;99.90
54788;DHT22;59598;48.112;16.280;2022-09-16T18:17:43;13.40;99.90
54788;DHT22;59598;48.112;16.280;2022-09-16T18:20:16;13.50;99.90
54788;DHT22;59598;48.112;16.280;2022-09-16T18:22:47;13.50;99.90
54788;DHT22;59598;48.112;16.280;2022-09-16T18:25:19;13.50;99.90
54788;DHT22;59598;48.112;16.280;2022-09-16T18:27:50;13.50;99.90
54788;DHT22;59598;48.112;16.280;2022-09-16T18:30:22;13.50;99.90
54788;DHT22;59598;48.112;16.280;2022-09-16T18:32:55;13.60;99.90
54788;DHT22;59598;48.112;16.280;2022-09-16T18:35:29;13.60;99.90
54788;DHT22;59598;48.112;16.280;2022-09-16T18:38:09;13.60;99.90
54788;DHT22;59598;48.112;16.280;2022-09-16T18:40:42;13.60;99.90
54788;DHT22;59598;48.112;16.280;2022-09-16T18:43:16;13.60;99.90
54788;DHT22;59598;48.112;16.280;2022-09-16T18:45:51;13.60;99.90
54788;DHT22;59598;48.112;16.280;2022-09-16T18:48:24;13.60;99.90
54788;DHT22;59598;48.112;16.280;2022-09-16T18:50:58;13.60;99.90
54788;DHT22;59598;48.112;16.280;2022-09-16T18:53:32;13.70;99.90
54788;DHT22;59598;48.112;16.280;2022-09-16T18:56:13;13.80;99.90
54788;DHT22;59598;48.112;16.280;2022-09-16T18:58:51;13.80;99.90
54788;DHT22;59598;48.112;16.280;2022-09-16T19:01:37;13.90;99.90
54788;DHT22;59598;48.112;16.280;2022-09-16T19:04:11;14.00;99.90
54788;DHT22;59598;48.112;16.280;2022-09-16T19:06:47;14.10;99.90
54788;DHT22;59598;48.112;16.280;2022-09-16T19:09:24;14.10;99.90
54788;DHT22;59598;48.112;16.280;2022-09-16T19:11:59;14.00;99.90
54788;DHT22;59598;48.112;16.280;2022-09-16T19:14:34;13.90;99.90
54788;DHT22;59598;48.112;16.280;2022-09-16T19:17:14;13.90;99.90
54788;DHT22;59598;48.112;16.280;2022-09-16T19:19:46;13.80;99.90
54788;DHT22;59598;48.112;16.280;2022-09-16T19:22:21;13.90;99.90
54788;DHT22;59598;48.112;16.280;2022-09-16T19:24:53;13.80;99.90
54788;DHT22;59598;48.112;16.280;2022-09-16T19:27:32;13.70;99.90